Time;durP1;ratioP1;P1;durP2;ratioP2;P2;SDS_P1;SDS_P2;PMS_P1;PMS_P2;Temp;Humidity;BMP_temperature;BMP_pressure;BME280_temperature;BME280_humidity;BME280_pressure;Samples;Min_cycle;Max_cycle;Signal;HPM_P1;HPM_P2
2024/01/14 00:01:16;;;;;;;0.97;0.97;;;;;;;-0.87;nan;99556.44;5111305;28;20195;-68
2024/01/14 00:03:44;;;;;;;1.07;1.07;;;;;;;-0.95;nan;99536.19;5111510;28;20199;-68
2024/01/14 00:06:11;;;;;;;0.70;0.70;;;;;;;-0.83;nan;99543.06;5110863;28;20251;-68
2024/01/14 00:08:37;;;;;;;0.80;0.80;;;;;;;-0.81;nan;99547.34;5092877;28;20215;-68
2024/01/14 00:11:05;;;;;;;0.70;0.70;;;;;;;-0.76;nan;99552.44;5090165;28;20203;-68
2024/01/14 00:13:31;;;;;;;0.60;0.60;;;;;;;-0.73;nan;99557.50;5090519;28;20199;-68
2024/01/14 00:15:58;;;;;;;1.17;1.17;;;;;;;-0.71;nan;99556.72;5090638;28;20227;-67
2024/01/14 00:18:25;;;;;;;0.60;0.60;;;;;;;-0.73;nan;99552.47;5096802;28;20282;-68
2024/01/14 00:20:53;;;;;;;1.00;1.00;;;;;;;-0.76;nan;99552.44;5091506;28;20199;-68
2024/01/14 00:23:20;;;;;;;0.70;0.70;;;;;;;-0.82;nan;99550.66;5110822;28;20220;-68
2024/01/14 00:25:46;;;;;;;0.90;0.90;;;;;;;-0.86;nan;99558.13;5105300;28;20199;-68
2024/01/14 00:28:13;;;;;;;0.60;0.60;;;;;;;-0.95;nan;99547.91;5092607;28;20223;-68
2024/01/14 00:30:40;;;;;;;1.53;1.53;;;;;;;-0.90;nan;99556.38;5090483;28;20633;-68
2024/01/14 00:33:06;;;;;;;1.67;1.67;;;;;;;-0.88;nan;99549.72;5090475;28;20644;-68
2024/01/14 00:35:33;;;;;;;0.73;0.73;;;;;;;-0.88;nan;99543.00;5086401;28;20253;-68
2024/01/14 00:38:02;;;;;;;0.90;0.90;;;;;;;-0.85;nan;99539.69;5090309;28;20199;-68
2024/01/14 00:40:29;;;;;;;1.10;1.10;;;;;;;-0.95;nan;99522.75;5090232;28;20199;-68
2024/01/14 00:42:56;;;;;;;0.70;0.70;;;;;;;-0.90;nan;99531.19;5105680;28;20289;-68
2024/01/14 00:45:23;;;;;;;0.73;0.73;;;;;;;-0.90;nan;99531.19;5110501;28;20198;-68
2024/01/14 00:47:49;;;;;;;1.47;1.47;;;;;;;-0.91;nan;99534.56;5096075;28;20293;-68
2024/01/14 00:50:16;;;;;;;1.70;1.70;;;;;;;-0.87;nan;99531.28;5090371;28;20256;-68
2024/01/14 00:52:43;;;;;;;0.90;0.90;;;;;;;-0.88;nan;99530.44;5090357;28;20205;-68
2024/01/14 00:55:11;;;;;;;0.90;0.90;;;;;;;-0.92;nan;99513.59;5089162;28;20199;-68
2024/01/14 00:57:38;;;;;;;0.93;0.93;;;;;;;-0.99;nan;99510.91;5090187;28;20195;-68
2024/01/14 01:00:08;;;;;;;2.03;1.93;;;;;;;-0.97;nan;99524.41;5090659;28;20664;-68
2024/01/14 01:02:35;;;;;;;1.00;1.00;;;;;;;-0.98;nan;99515.13;5106908;28;20713;-67
2024/01/14 01:05:02;;;;;;;1.10;1.10;;;;;;;-0.99;nan;99510.91;5103652;28;20195;-68
2024/01/14 01:07:29;;;;;;;0.70;0.70;;;;;;;-1.01;nan;99500.84;5089662;28;20300;-67
2024/01/14 01:09:56;;;;;;;1.30;1.30;;;;;;;-0.99;nan;99505.88;5089982;28;20225;-68
2024/01/14 01:12:24;;;;;;;0.90;0.90;;;;;;;-1.00;nan;99502.53;5090483;28;20257;-68
2024/01/14 01:14:51;;;;;;;1.00;1.00;;;;;;;-0.99;nan;99505.88;5090243;28;20256;-68
2024/01/14 01:17:18;;;;;;;1.47;1.47;;;;;;;-1.09;nan;99500.69;5090226;28;20299;-68
2024/01/14 01:19:45;;;;;;;1.77;1.77;;;;;;;-1.11;nan;99496.47;5089996;28;20702;-68
2024/01/14 01:22:12;;;;;;;1.47;1.47;;;;;;;-1.09;nan;99499.84;5091256;28;20233;-68
2024/01/14 01:24:38;;;;;;;1.13;1.13;;;;;;;-1.10;nan;99493.97;5089567;28;20203;-68
2024/01/14 01:27:05;;;;;;;0.80;0.80;;;;;;;-1.07;nan;99499.03;5090274;28;20257;-68
2024/01/14 01:29:33;;;;;;;0.90;0.90;;;;;;;-1.11;nan;99497.31;5089860;28;20282;-68
2024/01/14 01:32:00;;;;;;;0.90;0.90;;;;;;;-1.13;nan;99488.06;5104038;28;20556;-68
2024/01/14 01:34:27;;;;;;;1.00;1.00;;;;;;;-1.15;nan;99485.50;5091197;28;20210;-68
2024/01/14 01:36:54;;;;;;;0.70;0.70;;;;;;;-1.16;nan;99476.25;5090707;28;20196;-68
2024/01/14 01:39:20;;;;;;;1.30;1.30;;;;;;;-1.21;nan;99469.47;5093721;28;20192;-68
2024/01/14 01:41:47;;;;;;;0.90;0.90;;;;;;;-1.16;nan;99468.72;5093172;28;20245;-68
2024/01/14 01:44:14;;;;;;;0.70;0.70;;;;;;;-1.17;nan;99466.19;5093900;28;20287;-68
2024/01/14 01:46:43;;;;;;;0.90;0.90;;;;;;;-1.19;nan;99457.75;5099142;28;20195;-68
2024/01/14 01:49:10;;;;;;;0.80;0.80;;;;;;;-1.21;nan;99465.28;5099970;28;20340;-68
2024/01/14 01:51:37;;;;;;;1.20;1.17;;;;;;;-1.23;nan;99456.84;5098114;28;20198;-68
2024/01/14 01:54:04;;;;;;;1.30;1.30;;;;;;;-1.22;nan;99460.22;5113624;28;20195;-68
2024/01/14 01:56:33;;;;;;;1.20;1.20;;;;;;;-1.24;nan;99449.28;5112554;28;20199;-68
2024/01/14 01:59:00;;;;;;;0.90;0.90;;;;;;;-1.28;nan;99445.88;5094071;28;20249;-68
2024/01/14 02:01:27;;;;;;;1.10;1.10;;;;;;;-1.29;nan;99438.31;5093287;28;20203;-68
2024/01/14 02:03:55;;;;;;;1.23;1.23;;;;;;;-1.32;nan;99441.59;5092803;28;20199;-67
2024/01/14 02:06:23;;;;;;;0.80;0.80;;;;;;;-1.33;nan;99439.06;5111652;28;20202;-68
2024/01/14 02:08:50;;;;;;;1.20;1.20;;;;;;;-1.35;nan;99444.06;5110607;28;20226;-68
2024/01/14 02:11:18;;;;;;;2.17;2.17;;;;;;;-1.38;nan;99443.16;5101867;28;20194;-68
2024/01/14 02:13:45;;;;;;;1.77;1.77;;;;;;;-1.41;nan;99433.91;5113682;28;20205;-68
2024/01/14 02:16:12;;;;;;;0.80;0.80;;;;;;;-1.42;nan;99429.69;5102456;28;20223;-68
2024/01/14 02:18:38;;;;;;;1.10;1.10;;;;;;;-1.44;nan;99426.31;5093113;28;20249;-68
2024/01/14 02:21:08;;;;;;;0.97;0.97;;;;;;;-1.49;nan;99430.41;5092800;28;20560;-68
2024/01/14 02:23:40;;;;;;;1.33;1.33;;;;;;;-1.58;nan;99436.94;5093167;28;20248;-68
2024/01/14 02:26:08;;;;;;;1.23;1.23;;;;;;;-1.61;nan;99443.59;5101842;28;20651;-67
2024/01/14 02:28:35;;;;;;;0.90;0.90;;;;;;;-1.63;nan;99444.38;5111235;28;20218;-68
2024/01/14 02:31:02;;;;;;;0.97;0.97;;;;;;;-1.66;nan;99436.78;5099441;28;20256;-68
2024/01/14 02:33:28;;;;;;;1.53;1.53;;;;;;;-1.63;nan;99441.88;5109895;28;20220;-68
2024/01/14 02:35:55;;;;;;;1.40;1.40;;;;;;;-1.65;nan;99438.50;5106084;28;20191;-68
2024/01/14 02:38:22;;;;;;;0.90;0.90;;;;;;;-1.72;nan;99436.69;5092201;28;20583;-68
2024/01/14 02:40:49;;;;;;;1.57;1.53;;;;;;;-1.72;nan;99424.13;5092414;28;20195;-68
2024/01/14 02:43:17;;;;;;;1.33;1.33;;;;;;;-1.74;nan;99423.22;5092235;28;20195;-68
2024/01/14 02:45:43;;;;;;;0.83;0.83;;;;;;;-1.78;nan;99408.94;5092273;28;20200;-68
2024/01/14 02:48:09;;;;;;;1.97;1.97;;;;;;;-1.80;nan;99421.44;5091902;28;20276;-68
2024/01/14 02:50:36;;;;;;;1.40;1.40;;;;;;;-1.80;nan;99428.13;5091760;28;20191;-68
2024/01/14 02:53:03;;;;;;;1.20;1.20;;;;;;;-1.82;nan;99430.63;5100675;28;20205;-68
2024/01/14 02:55:30;;;;;;;1.20;1.20;;;;;;;-1.83;nan;99425.56;5109462;28;20237;-68
2024/01/14 02:57:57;;;;;;;1.13;1.13;;;;;;;-1.85;nan;99425.56;5092421;28;20191;-68
2024/01/14 03:00:25;;;;;;;0.90;0.90;;;;;;;-1.86;nan;99423.00;5091860;28;20192;-68
2024/01/14 03:02:52;;;;;;;1.50;1.40;;;;;;;-1.87;nan;99423.78;5102277;28;20195;-68
2024/01/14 03:05:19;;;;;;;1.43;1.43;;;;;;;-1.90;nan;99426.25;5098923;28;20259;-68
2024/01/14 03:07:45;;;;;;;1.00;1.00;;;;;;;-1.96;nan;99428.66;5095414;28;20762;-68
2024/01/14 03:10:12;;;;;;;0.83;0.83;;;;;;;-1.99;nan;99424.41;5095767;28;20629;-68
2024/01/14 03:12:39;;;;;;;3.30;2.23;;;;;;;-2.00;nan;99419.38;5091740;28;20195;-68
2024/01/14 03:15:06;;;;;;;0.70;0.70;;;;;;;-1.99;nan;99418.53;5093564;28;20206;-68
2024/01/14 03:17:34;;;;;;;1.57;1.57;;;;;;;-2.02;nan;99413.47;5091746;28;20203;-68
2024/01/14 03:20:02;;;;;;;4.93;1.90;;;;;;;-2.05;nan;99419.28;5091470;28;20191;-68
2024/01/14 03:22:28;;;;;;;3.23;3.13;;;;;;;-2.06;nan;99411.69;5099872;28;20199;-68
2024/01/14 03:24:55;;;;;;;6.03;1.77;;;;;;;-2.15;nan;99405.69;5111396;28;20251;-68
2024/01/14 03:27:22;;;;;;;1.17;1.17;;;;;;;-2.14;nan;99414.94;5099448;28;20192;-68
2024/01/14 03:29:48;;;;;;;1.47;1.47;;;;;;;-2.16;nan;99410.66;5090991;28;20583;-68
2024/01/14 03:32:15;;;;;;;0.97;0.97;;;;;;;-2.21;nan;99407.22;5091442;28;20200;-68
2024/01/14 03:34:43;;;;;;;2.20;2.20;;;;;;;-2.28;nan;99410.41;5090969;28;20245;-68
2024/01/14 03:37:10;;;;;;;1.93;1.93;;;;;;;-2.34;nan;99402.75;5090930;28;20227;-68
2024/01/14 03:39:37;;;;;;;1.27;1.27;;;;;;;-2.41;nan;99398.44;5092400;28;20195;-68
2024/01/14 03:42:03;;;;;;;1.27;1.27;;;;;;;-2.43;nan;99395.91;5094110;28;20679;-68
2024/01/14 03:44:30;;;;;;;1.00;1.00;;;;;;;-2.45;nan;99397.50;5096902;28;20259;-68
2024/01/14 03:46:57;;;;;;;0.83;0.83;;;;;;;-2.45;nan;99389.13;5111763;28;20322;-68
2024/01/14 03:49:23;;;;;;;1.30;1.30;;;;;;;-2.49;nan;99390.75;5111677;28;20215;-68
2024/01/14 03:51:51;;;;;;;1.53;1.43;;;;;;;-2.57;nan;99386.38;5111681;28;20259;-68
2024/01/14 03:54:18;;;;;;;1.17;1.17;;;;;;;-2.58;nan;99387.19;5099657;28;20215;-68
2024/01/14 03:56:45;;;;;;;1.20;1.20;;;;;;;-2.61;nan;99395.47;5091321;28;20667;-68
2024/01/14 03:59:12;;;;;;;1.10;1.10;;;;;;;-2.59;nan;99396.38;5090753;28;20633;-68
2024/01/14 04:01:38;;;;;;;0.70;0.70;;;;;;;-2.58;nan;99395.53;5094438;28;20659;-68
2024/01/14 04:04:05;;;;;;;1.00;1.00;;;;;;;-2.59;nan;99383.84;5090680;28;20256;-68
2024/01/14 04:06:32;;;;;;;0.90;0.90;;;;;;;-2.57;nan;99381.34;5091056;28;20195;-68
2024/01/14 04:09:00;;;;;;;2.00;2.00;;;;;;;-2.58;nan;99384.69;5090315;28;20214;-68
2024/01/14 04:11:26;;;;;;;1.20;1.20;;;;;;;-2.56;nan;99378.88;5090887;28;20749;-68
2024/01/14 04:13:53;;;;;;;1.57;1.17;;;;;;;-2.54;nan;99384.78;5090662;28;20196;-68
2024/01/14 04:16:21;;;;;;;0.90;0.90;;;;;;;-2.56;nan;99381.41;5107710;28;20264;-68
2024/01/14 04:18:47;;;;;;;1.63;1.63;;;;;;;-2.61;nan;99375.41;5111216;28;20237;-68
2024/01/14 04:21:21;;;;;;;0.87;0.87;;;;;;;-2.64;nan;99382.88;5110966;28;20735;-68
2024/01/14 04:23:48;;;;;;;1.00;1.00;;;;;;;-2.58;nan;99392.22;5111073;28;20294;-68
2024/01/14 04:26:19;;;;;;;2.93;1.53;;;;;;;-2.61;nan;99392.97;5097265;28;20260;-68
2024/01/14 04:28:46;;;;;;;1.33;1.33;;;;;;;-2.64;nan;99385.38;5090546;28;20215;-68
2024/01/14 04:31:13;;;;;;;1.30;1.30;;;;;;;-2.61;nan;99380.44;5098875;28;20256;-67
2024/01/14 04:33:40;;;;;;;1.97;1.57;;;;;;;-2.62;nan;99388.78;5110976;28;20231;-68
2024/01/14 04:36:07;;;;;;;1.33;1.33;;;;;;;-2.66;nan;99377.00;5100170;28;20198;-68
2024/01/14 04:38:33;;;;;;;1.00;1.00;;;;;;;-2.66;nan;99395.41;5089984;28;20195;-68
2024/01/14 04:41:01;;;;;;;0.90;0.90;;;;;;;-2.71;nan;99384.41;5095833;28;20194;-68
2024/01/14 04:43:29;;;;;;;1.43;1.43;;;;;;;-2.69;nan;99397.00;5092711;28;20199;-68
2024/01/14 04:45:56;;;;;;;0.83;0.83;;;;;;;-2.71;nan;99398.59;5089956;28;20571;-68
2024/01/14 04:48:22;;;;;;;0.90;0.90;;;;;;;-2.87;nan;99381.50;5091178;28;20269;-68
2024/01/14 04:50:50;;;;;;;3.90;3.57;;;;;;;-2.83;nan;99399.19;5097754;28;20192;-68
2024/01/14 04:53:17;;;;;;;1.13;1.13;;;;;;;-2.89;nan;99399.03;5099220;28;20256;-68
2024/01/14 04:55:44;;;;;;;1.60;1.60;;;;;;;-2.93;nan;99397.28;5106111;28;20299;-68
2024/01/14 04:58:11;;;;;;;1.10;1.10;;;;;;;-2.96;nan;99393.84;5110935;28;20263;-68
2024/01/14 05:00:39;;;;;;;0.93;0.93;;;;;;;-3.00;nan;99384.53;5090500;28;20199;-68
2024/01/14 05:03:06;;;;;;;1.87;1.87;;;;;;;-3.04;nan;99382.81;5106496;28;20195;-68
2024/01/14 05:05:32;;;;;;;0.80;0.80;;;;;;;-3.04;nan;99382.81;5092525;28;20666;-68
2024/01/14 05:07:59;;;;;;;1.57;1.57;;;;;;;-3.05;nan;99391.13;5089557;28;20195;-68
2024/01/14 05:10:26;;;;;;;1.20;1.20;;;;;;;-3.10;nan;99392.69;5099152;28;20207;-68
2024/01/14 05:12:52;;;;;;;0.97;0.97;;;;;;;-3.11;nan;99385.97;5093003;28;20257;-68
2024/01/14 05:15:19;;;;;;;1.10;1.10;;;;;;;-3.11;nan;99383.47;5094183;28;20209;-68
2024/01/14 05:17:47;;;;;;;1.10;1.10;;;;;;;-3.10;nan;99383.47;5101572;28;20252;-68
2024/01/14 05:20:15;;;;;;;1.27;1.27;;;;;;;-3.12;nan;99389.28;5097026;28;20720;-68
2024/01/14 05:22:41;;;;;;;1.60;1.60;;;;;;;-3.17;nan;99385.00;5102222;28;20248;-68
2024/01/14 05:25:08;;;;;;;1.07;1.07;;;;;;;-3.31;nan;99352.91;5108913;28;20623;-67
2024/01/14 05:27:35;;;;;;;1.20;1.20;;;;;;;-3.20;nan;99374.09;5094090;28;20256;-68
2024/01/14 05:30:03;;;;;;;0.90;0.90;;;;;;;-3.18;nan;99374.94;5093199;28;20212;-68
2024/01/14 05:32:29;;;;;;;1.20;1.20;;;;;;;-3.17;nan;99369.97;5100499;28;20195;-68
2024/01/14 05:34:58;;;;;;;1.83;1.83;;;;;;;-3.33;nan;99345.34;5103699;28;20199;-68
2024/01/14 05:37:25;;;;;;;1.10;1.10;;;;;;;-3.17;nan;99378.31;5097219;28;20195;-68
2024/01/14 05:39:52;;;;;;;1.87;1.83;;;;;;;-3.19;nan;99369.09;5093089;28;20691;-68
2024/01/14 05:42:18;;;;;;;0.87;0.87;;;;;;;-3.23;nan;99364.81;5095488;28;20195;-68
2024/01/14 05:44:45;;;;;;;1.17;1.17;;;;;;;-3.21;nan;99365.72;5100690;28;20203;-68
2024/01/14 05:47:12;;;;;;;1.73;1.73;;;;;;;-3.20;nan;99354.84;5094077;28;20687;-68
2024/01/14 05:49:38;;;;;;;2.70;2.50;;;;;;;-3.21;nan;99359.84;5091210;28;20219;-68
2024/01/14 05:52:07;;;;;;;1.03;1.03;;;;;;;-3.23;nan;99352.28;5106122;28;20208;-68
2024/01/14 05:54:33;;;;;;;1.60;1.60;;;;;;;-3.24;nan;99360.63;5093826;28;20578;-68
2024/01/14 05:57:00;;;;;;;1.40;1.40;;;;;;;-3.24;nan;99348.09;5096189;28;20204;-68
2024/01/14 05:59:27;;;;;;;1.20;1.20;;;;;;;-3.24;nan;99348.09;5095631;28;20190;-68
2024/01/14 06:01:55;;;;;;;1.07;1.07;;;;;;;-3.25;nan;99356.41;5097636;28;20203;-67
2024/01/14 06:04:22;;;;;;;1.60;1.57;;;;;;;-3.24;nan;99348.09;5090829;28;20297;-68
2024/01/14 06:06:48;;;;;;;4.80;1.77;;;;;;;-3.24;nan;99345.59;5093857;28;20199;-68
2024/01/14 06:09:17;;;;;;;1.17;1.17;;;;;;;-3.25;nan;99338.88;5091031;28;20273;-68
2024/01/14 06:11:43;;;;;;;2.67;2.57;;;;;;;-3.25;nan;99348.88;5093028;28;20280;-68
2024/01/14 06:14:10;;;;;;;0.83;0.83;;;;;;;-3.28;nan;99348.81;5091395;28;20212;-68
2024/01/14 06:16:38;;;;;;;1.13;1.13;;;;;;;-3.39;nan;99345.19;5096696;28;20218;-68
2024/01/14 06:19:05;;;;;;;1.20;1.20;;;;;;;-3.37;nan;99353.63;5096357;28;20290;-68
2024/01/14 06:21:31;;;;;;;2.73;1.27;;;;;;;-3.37;nan;99358.63;5089289;28;20740;-68
2024/01/14 06:23:58;;;;;;;2.80;2.60;;;;;;;-3.48;nan;99334.97;5092552;28;20274;-69
2024/01/14 06:26:26;;;;;;;1.73;1.73;;;;;;;-3.45;nan;99349.22;5094282;28;20260;-68
2024/01/14 06:28:53;;;;;;;1.43;1.43;;;;;;;-3.44;nan;99356.78;5100162;28;20214;-68
2024/01/14 06:31:20;;;;;;;0.93;0.93;;;;;;;-3.44;nan;99356.78;5093198;28;20635;-68
2024/01/14 06:33:47;;;;;;;1.30;1.30;;;;;;;-3.43;nan;99363.50;5101607;28;20211;-67
2024/01/14 06:36:13;;;;;;;1.93;1.93;;;;;;;-3.46;nan;99370.94;5091619;28;20687;-68
2024/01/14 06:38:40;;;;;;;1.43;1.43;;;;;;;-3.43;nan;99363.50;5090011;28;20653;-68
2024/01/14 06:41:07;;;;;;;2.53;2.37;;;;;;;-3.40;nan;99367.72;5091265;28;20199;-68
2024/01/14 06:43:35;;;;;;;3.03;2.73;;;;;;;-3.45;nan;99359.25;5091541;28;20203;-67
2024/01/14 06:46:02;;;;;;;1.33;1.33;;;;;;;-3.41;nan;99356.84;5090585;28;20200;-68
2024/01/14 06:48:29;;;;;;;3.43;3.33;;;;;;;-3.32;nan;99364.59;5087418;28;20210;-68
2024/01/14 06:50:56;;;;;;;1.63;1.63;;;;;;;-3.27;nan;99367.22;5085118;28;20780;-68
2024/01/14 06:53:22;;;;;;;0.90;0.90;;;;;;;-3.30;nan;99360.47;5089397;28;20276;-68
2024/01/14 06:55:49;;;;;;;1.83;1.83;;;;;;;-3.33;nan;99357.06;5098476;28;20203;-68
2024/01/14 06:58:16;;;;;;;0.90;0.90;;;;;;;-3.31;nan;99353.75;5091166;28;20332;-68
2024/01/14 07:00:45;;;;;;;1.10;1.10;;;;;;;-3.39;nan;99354.41;5087871;28;20203;-67
2024/01/14 07:03:12;;;;;;;0.90;0.90;;;;;;;-3.41;nan;99343.47;5092929;28;20667;-68
2024/01/14 07:05:38;;;;;;;1.63;1.63;;;;;;;-3.48;nan;99329.94;5090611;28;20199;-68
2024/01/14 07:08:05;;;;;;;4.13;1.87;;;;;;;-3.35;nan;99341.97;5098094;28;20633;-68
2024/01/14 07:10:32;;;;;;;1.07;1.07;;;;;;;-3.26;nan;99341.31;5085070;28;20272;-68
2024/01/14 07:13:00;;;;;;;1.90;1.90;;;;;;;-3.25;nan;99338.88;5087401;28;20272;-68
2024/01/14 07:15:27;;;;;;;1.37;1.37;;;;;;;-3.23;nan;99346.44;5084835;28;20230;-68
2024/01/14 07:17:55;;;;;;;2.03;1.93;;;;;;;-3.21;nan;99345.66;5088156;28;20633;-68
2024/01/14 07:20:21;;;;;;;1.43;1.40;;;;;;;-3.13;nan;99355.84;5088537;28;20191;-68
2024/01/14 07:22:48;;;;;;;2.60;2.40;;;;;;;-3.09;nan;99354.25;5092473;28;20278;-68
2024/01/14 07:25:15;;;;;;;1.30;1.30;;;;;;;-3.02;nan;99353.59;5088433;28;20195;-68
2024/01/14 07:27:42;;;;;;;1.43;1.43;;;;;;;-2.96;nan;99346.19;5089332;28;20660;-68
2024/01/14 07:30:09;;;;;;;1.13;1.13;;;;;;;-2.91;nan;99345.50;5091083;28;20276;-68
2024/01/14 07:32:35;;;;;;;2.07;2.07;;;;;;;-2.87;nan;99331.34;5089246;28;20249;-69
2024/01/14 07:35:04;;;;;;;1.00;1.00;;;;;;;-2.78;nan;99339.91;5084574;28;20261;-68
2024/01/14 07:37:33;;;;;;;1.63;1.63;;;;;;;-2.70;nan;99330.06;5093575;28;20203;-68
2024/01/14 07:40:00;;;;;;;3.53;2.40;;;;;;;-2.61;nan;99325.22;5090512;28;20191;-68
2024/01/14 07:42:27;;;;;;;1.10;1.10;;;;;;;-2.53;nan;99323.75;5089111;28;20203;-68
2024/01/14 07:44:54;;;;;;;0.70;0.70;;;;;;;-2.46;nan;99322.19;5090158;28;20207;-68
2024/01/14 07:47:21;;;;;;;1.70;1.70;;;;;;;-2.41;nan;99318.97;5089036;28;20234;-68
2024/01/14 07:49:49;;;;;;;0.97;0.97;;;;;;;-2.53;nan;99317.88;5090478;28;20219;-68
2024/01/14 07:52:17;;;;;;;1.37;1.37;;;;;;;-2.41;nan;99308.91;5087460;28;20207;-68
2024/01/14 07:54:44;;;;;;;0.80;0.80;;;;;;;-2.26;nan;99305.88;5086206;28;20744;-68
2024/01/14 07:57:11;;;;;;;1.40;1.40;;;;;;;-2.14;nan;99309.47;5088225;28;20659;-68
2024/01/14 07:59:38;;;;;;;1.20;1.20;;;;;;;-2.05;nan;99302.91;5086728;28;20279;-68
2024/01/14 08:02:05;;;;;;;1.00;1.00;;;;;;;-1.99;nan;99292.97;5088885;28;20672;-68
2024/01/14 08:04:32;;;;;;;0.83;0.83;;;;;;;-1.87;nan;99293.16;5094780;28;20207;-71
2024/01/14 08:06:58;;;;;;;2.83;2.73;;;;;;;-1.74;nan;99297.59;5087549;28;20219;-68
2024/01/14 08:09:26;;;;;;;0.80;0.80;;;;;;;-1.72;nan;99295.97;5089530;28;20277;-68
2024/01/14 08:11:53;;;;;;;1.13;1.13;;;;;;;-1.62;nan;99301.19;5090167;28;20207;-68
2024/01/14 08:14:20;;;;;;;0.73;0.73;;;;;;;-1.55;nan;99292.03;5092000;28;20282;-68
2024/01/14 08:16:47;;;;;;;1.13;1.13;;;;;;;-1.37;nan;99294.88;5095674;28;20614;-68
2024/01/14 08:19:13;;;;;;;0.77;0.77;;;;;;;-1.18;nan;99293.47;5088274;28;20588;-68
2024/01/14 08:21:43;;;;;;;1.10;1.10;;;;;;;-1.00;nan;99292.91;5087038;28;20559;-67
2024/01/14 08:24:09;;;;;;;1.03;1.03;;;;;;;-0.88;nan;99300.59;5092233;28;20207;-67
2024/01/14 08:26:44;;;;;;;0.80;0.80;;;;;;;-0.68;nan;99299.22;5089874;28;20203;-67
2024/01/14 08:29:12;;;;;;;0.90;0.90;;;;;;;-0.55;nan;99299.34;5087975;28;20194;-67
2024/01/14 08:31:39;;;;;;;1.77;1.77;;;;;;;-0.44;nan;99296.97;5087935;28;20260;-67
2024/01/14 08:34:06;;;;;;;1.00;1.00;;;;;;;-0.35;nan;99307.16;5094387;28;20256;-67
2024/01/14 08:36:32;;;;;;;5.20;1.37;;;;;;;-0.24;nan;99295.53;5089469;28;20199;-67
2024/01/14 08:38:59;;;;;;;1.33;1.33;;;;;;;-0.19;nan;99298.94;5087890;28;20208;-67
2024/01/14 08:41:26;;;;;;;2.00;2.00;;;;;;;-0.21;nan;99292.19;5090882;28;20238;-67
2024/01/14 08:43:56;;;;;;;1.20;1.10;;;;;;;-0.26;nan;99287.09;5089604;28;20229;-67
2024/01/14 08:46:22;;;;;;;0.70;0.70;;;;;;;-0.23;nan;99277.09;5086973;28;20295;-67
2024/01/14 08:48:49;;;;;;;1.07;1.07;;;;;;;-0.15;nan;99280.53;5094268;28;20206;-67
2024/01/14 08:51:16;;;;;;;1.33;1.33;;;;;;;-0.23;nan;99264.50;5106098;28;20268;-67
2024/01/14 08:53:42;;;;;;;1.67;0.93;;;;;;;-0.13;nan;99278.03;5107628;28;20199;-67
2024/01/14 08:56:09;;;;;;;1.17;1.17;;;;;;;-0.14;nan;99277.19;5102285;28;20267;-67
2024/01/14 08:58:36;;;;;;;2.23;2.13;;;;;;;-0.08;nan;99277.25;5095682;28;20252;-67
2024/01/14 09:01:04;;;;;;;1.63;1.63;;;;;;;-0.06;nan;99273.03;5092943;28;20210;-67
2024/01/14 09:03:31;;;;;;;1.20;1.20;;;;;;;-0.01;nan;99278.16;5093928;28;20199;-68
2024/01/14 09:05:58;;;;;;;1.13;1.13;;;;;;;0.06;nan;99261.41;5094299;28;20199;-68
2024/01/14 09:08:24;;;;;;;2.40;2.40;;;;;;;0.16;nan;99261.53;5105964;28;20192;-67
2024/01/14 09:10:51;;;;;;;1.43;1.37;;;;;;;0.22;nan;99260.72;5090511;28;20223;-68
2024/01/14 09:13:18;;;;;;;0.97;0.97;;;;;;;0.32;nan;99257.44;5105079;28;20264;-68
2024/01/14 09:15:45;;;;;;;1.30;1.30;;;;;;;0.34;nan;99251.59;5102365;28;20241;-67
2024/01/14 09:18:13;;;;;;;1.20;1.20;;;;;;;0.45;nan;99246.63;5102946;28;20247;-67
2024/01/14 09:20:39;;;;;;;1.80;1.80;;;;;;;0.53;nan;99252.56;5103328;28;20192;-68
2024/01/14 09:23:07;;;;;;;0.80;0.80;;;;;;;0.68;nan;99244.28;5102097;28;20643;-68
2024/01/14 09:25:34;;;;;;;0.80;0.80;;;;;;;0.75;nan;99249.34;5102699;28;20645;-68
2024/01/14 09:28:00;;;;;;;0.60;0.60;;;;;;;0.82;nan;99251.09;5107005;28;20192;-67
2024/01/14 09:30:27;;;;;;;5.97;3.42;;;;;;;0.76;nan;99253.56;5105380;28;20448;-68
2024/01/14 09:32:54;;;;;;;6.18;4.43;;;;;;;0.89;nan;99239.34;5108460;28;20475;-71
2024/01/14 09:35:22;;;;;;;2.97;2.87;;;;;;;1.27;nan;99239.53;5097274;28;20199;-71
2024/01/14 09:37:48;;;;;;;1.10;1.10;;;;;;;1.38;nan;99243.81;5098125;28;20203;-72
2024/01/14 09:40:16;;;;;;;0.90;0.90;;;;;;;1.40;nan;99236.22;5098010;28;20256;-71
2024/01/14 09:42:45;;;;;;;1.43;1.43;;;;;;;1.46;nan;99226.13;5114103;28;20285;-71
2024/01/14 09:45:13;;;;;;;1.93;1.93;;;;;;;1.46;nan;99216.88;5094467;28;20202;-71
2024/01/14 09:47:42;;;;;;;1.43;1.43;;;;;;;1.53;nan;99207.63;5103815;28;20206;-72
2024/01/14 09:50:10;;;;;;;1.07;1.07;;;;;;;1.61;nan;99200.94;5112346;28;20202;-72
2024/01/14 09:52:41;;;;;;;2.17;2.17;;;;;;;1.70;nan;99190.84;5103158;28;20623;-72
2024/01/14 09:55:10;;;;;;;1.37;1.37;;;;;;;1.71;nan;99187.50;5091406;28;20195;-72
2024/01/14 09:57:41;;;;;;;0.70;0.70;;;;;;;1.67;nan;99185.78;5101428;28;20674;-71
2024/01/14 10:00:10;;;;;;;3.97;1.83;;;;;;;1.81;nan;99178.25;5110362;28;20566;-72
2024/01/14 10:02:36;;;;;;;1.23;1.23;;;;;;;1.91;nan;99180.75;5092562;28;20222;-71
2024/01/14 10:05:04;;;;;;;1.20;1.20;;;;;;;1.99;nan;99179.09;5102028;28;20264;-72
2024/01/14 10:07:33;;;;;;;1.17;1.17;;;;;;;1.96;nan;99171.50;5110484;28;20277;-69
2024/01/14 10:10:01;;;;;;;1.63;1.63;;;;;;;1.74;nan;99157.19;5101303;28;20215;-71
2024/01/14 10:12:29;;;;;;;0.97;0.97;;;;;;;1.68;nan;99159.66;5089228;28;20241;-72
2024/01/14 10:14:59;;;;;;;0.87;0.87;;;;;;;1.79;nan;99170.63;5108019;28;20248;-72
2024/01/14 10:17:26;;;;;;;1.27;1.27;;;;;;;1.94;nan;99160.53;5088215;28;20318;-72
2024/01/14 10:19:53;;;;;;;0.80;0.80;;;;;;;1.92;nan;99152.13;5100652;28;20635;-71
2024/01/14 10:22:21;;;;;;;1.00;1.00;;;;;;;1.96;nan;99142.84;5100602;28;20256;-72
2024/01/14 10:24:52;;;;;;;1.63;1.63;;;;;;;2.08;nan;99138.63;5091897;28;20203;-71
2024/01/14 10:27:21;;;;;;;2.90;2.07;;;;;;;2.17;nan;99131.88;5094699;28;20195;-72
2024/01/14 10:29:48;;;;;;;0.70;0.70;;;;;;;2.23;nan;99131.91;5100571;28;20207;-71
2024/01/14 10:32:15;;;;;;;1.30;1.30;;;;;;;2.38;nan;99137.75;5092434;28;20640;-73
2024/01/14 10:34:41;;;;;;;1.07;1.07;;;;;;;2.45;nan;99141.13;5090003;28;20212;-72
2024/01/14 10:37:08;;;;;;;1.00;1.00;;;;;;;2.51;nan;99133.53;5110647;28;20670;-72
2024/01/14 10:39:36;;;;;;;1.70;1.70;;;;;;;2.58;nan;99125.91;5092923;28;20201;-72
2024/01/14 10:42:03;;;;;;;6.77;1.80;;;;;;;2.75;nan;99132.63;5092311;28;20195;-72
2024/01/14 10:44:31;;;;;;;0.73;0.73;;;;;;;2.63;nan;99123.38;5097611;28;20191;-72
2024/01/14 10:47:03;;;;;;;0.90;0.90;;;;;;;2.81;nan;99130.06;5101925;28;20195;-72
2024/01/14 10:49:32;;;;;;;0.93;0.93;;;;;;;2.86;nan;99125.81;5106244;28;20199;-72
2024/01/14 10:52:08;;;;;;;2.33;2.23;;;;;;;2.85;nan;99124.97;5101906;28;20250;-71
2024/01/14 10:54:40;;;;;;;1.37;1.37;;;;;;;2.89;nan;99120.75;5091459;28;20284;-71
2024/01/14 10:57:16;;;;;;;0.70;0.70;;;;;;;2.91;nan;99114.81;5093936;28;20200;-71
2024/01/14 10:59:45;;;;;;;0.67;0.67;;;;;;;2.95;nan;99105.53;5104637;28;20281;-71
2024/01/14 11:02:17;;;;;;;0.70;0.70;;;;;;;3.01;nan;99101.28;5111251;28;20198;-71
2024/01/14 11:04:45;;;;;;;1.90;1.80;;;;;;;2.91;nan;99104.69;5107472;28;20298;-70
2024/01/14 11:07:12;;;;;;;0.70;0.70;;;;;;;2.92;nan;99095.41;5107394;28;20263;-71
2024/01/14 11:09:40;;;;;;;1.07;1.07;;;;;;;2.97;nan;99084.41;5105898;28;20682;-71
2024/01/14 11:12:11;;;;;;;0.60;0.60;;;;;;;3.18;nan;99089.38;5101090;28;20730;-71
2024/01/14 11:14:45;;;;;;;1.40;1.40;;;;;;;3.11;nan;99082.66;5098058;28;20199;-65
2024/01/14 11:17:25;;;;;;;0.60;0.60;;;;;;;3.26;nan;99107.06;5054101;28;1119501;-65
2024/01/14 11:19:52;;;;;;;1.03;1.03;;;;;;;3.28;nan;99099.44;5101496;28;20268;-65
2024/01/14 11:22:20;;;;;;;1.57;1.57;;;;;;;3.36;nan;99092.66;5101630;28;20255;-66
2024/01/14 11:24:47;;;;;;;0.90;0.90;;;;;;;3.47;nan;99088.34;5098344;28;20203;-66
2024/01/14 11:27:15;;;;;;;2.77;1.27;;;;;;;3.61;nan;99086.56;5103593;28;20248;-66
2024/01/14 11:29:42;;;;;;;0.80;0.80;;;;;;;3.71;nan;99090.72;5103857;28;20281;-66
2024/01/14 11:32:10;;;;;;;0.80;0.80;;;;;;;3.81;nan;99094.03;5099120;28;20245;-66
2024/01/14 11:34:57;;;;;;;1.70;1.70;;;;;;;3.86;nan;99085.50;5105232;28;20579;-65
2024/01/14 11:37:38;;;;;;;0.93;0.93;;;;;;;3.84;nan;99066.94;5102881;28;20255;-65
2024/01/14 11:40:32;;;;;;;1.10;1.10;;;;;;;3.96;nan;99051.63;5099809;28;20247;-66
2024/01/14 11:43:05;;;;;;;1.57;1.50;;;;;;;4.07;nan;99049.81;5044065;28;20287;-66
2024/01/14 11:45:36;;;;;;;1.87;1.77;;;;;;;4.01;nan;99027.03;5096212;28;20199;-66
2024/01/14 11:48:05;;;;;;;2.43;2.33;;;;;;;4.21;nan;99037.84;5100383;28;20191;-66
2024/01/14 11:50:34;;;;;;;1.50;1.50;;;;;;;4.19;nan;99033.63;5104267;28;20219;-66
2024/01/14 11:53:03;;;;;;;1.20;1.20;;;;;;;4.29;nan;99026.78;5091838;28;20199;-65